createdAt,value
2019-03-27T00:00:22.836Z,100031.75
2019-03-27T00:02:52.320Z,100023.57
2019-03-27T00:05:21.880Z,100024.42
2019-03-27T00:07:51.429Z,100022.05
2019-03-27T00:10:23.167Z,100014.72
2019-03-27T00:13:04.491Z,100009.78
2019-03-27T00:15:34.038Z,100005.16
2019-03-27T00:18:03.624Z,100007.66
2019-03-27T00:20:33.233Z,100001.84
2019-03-27T00:23:02.759Z,100002.72
2019-03-27T00:25:32.262Z,100008.19
2019-03-27T00:28:01.746Z,100008.73
2019-03-27T00:30:31.276Z,100009.71
2019-03-27T00:33:00.835Z,100004.52
2019-03-27T00:35:30.334Z,100003.30
2019-03-27T00:37:59.839Z,99997.95
2019-03-27T00:40:29.304Z,99992.60
2019-03-27T00:42:58.859Z,99993.29
2019-03-27T00:45:28.356Z,99998.45
2019-03-27T00:47:57.922Z,100003.20
2019-03-27T00:50:27.437Z,100002.13
2019-03-27T00:52:56.918Z,99998.13
2019-03-27T00:55:26.424Z,99994.59
2019-03-27T00:57:55.895Z,99988.42
2019-03-27T01:00:29.972Z,99986.33
2019-03-27T01:02:59.454Z,99986.48
2019-03-27T01:05:32.024Z,99984.16
2019-03-27T01:08:01.529Z,99986.72
2019-03-27T01:10:31.095Z,99994.52
2019-03-27T01:13:00.641Z,99991.89
2019-03-27T01:15:39.688Z,99993.02
2019-03-27T01:18:01.404Z,99998.15
2019-03-27T01:20:30.956Z,99997.32
2019-03-27T01:23:00.415Z,99993.45
2019-03-27T01:25:29.907Z,100000.55
2019-03-27T01:27:59.473Z,99999.33
2019-03-27T01:30:28.977Z,99998.36
2019-03-27T01:32:58.535Z,99996.67
2019-03-27T01:35:28.046Z,99996.89
2019-03-27T01:37:57.537Z,99996.41
2019-03-27T01:40:26.997Z,99996.14
2019-03-27T01:42:58.299Z,99987.22
2019-03-27T01:45:53.090Z,99987.63
2019-03-27T01:48:18.306Z,99985.55
2019-03-27T01:50:47.800Z,99982.27
2019-03-27T01:53:17.296Z,99988.12
2019-03-27T01:55:46.797Z,99989.34
2019-03-27T01:58:16.312Z,99993.02
2019-03-27T02:00:45.813Z,99990.42
2019-03-27T02:03:15.319Z,99987.89
2019-03-27T02:05:44.620Z,99989.00
2019-03-27T02:08:13.968Z,99998.77
2019-03-27T02:10:47.009Z,99986.86
2019-03-27T02:13:21.589Z,99989.31
2019-03-27T02:15:51.053Z,99982.17
2019-03-27T02:18:22.431Z,99989.84
2019-03-27T02:20:54.588Z,99996.09
2019-03-27T02:23:25.699Z,99988.98
2019-03-27T02:25:55.207Z,99995.82
2019-03-27T02:28:26.211Z,99994.63
2019-03-27T02:30:55.721Z,99998.34
2019-03-27T02:33:26.805Z,100001.30
2019-03-27T02:35:56.512Z,99997.05
2019-03-27T02:38:26.029Z,100005.20
2019-03-27T02:40:56.275Z,100003.55
2019-03-27T02:43:27.759Z,100002.23
2019-03-27T02:46:00.375Z,100006.24
2019-03-27T02:48:29.919Z,100006.50
2019-03-27T02:51:06.678Z,99995.23
2019-03-27T02:53:36.213Z,99994.80
2019-03-27T02:56:05.775Z,99999.98
2019-03-27T02:58:37.121Z,99992.19
2019-03-27T03:01:11.268Z,100000.45
2019-03-27T03:03:40.695Z,99999.58
2019-03-27T03:06:11.700Z,99995.70
2019-03-27T03:08:41.223Z,99997.21
2019-03-27T03:11:10.707Z,100001.86
2019-03-27T03:13:41.686Z,99996.26
2019-03-27T03:16:11.204Z,100003.45
2019-03-27T03:18:41.653Z,100007.17
2019-03-27T03:21:11.157Z,100006.65
2019-03-27T03:23:40.726Z,100006.39
2019-03-27T03:26:10.228Z,100003.86
2019-03-27T03:28:39.725Z,100008.55
2019-03-27T03:31:09.213Z,100002.00
2019-03-27T03:33:41.785Z,99998.40
2019-03-27T03:36:12.798Z,99999.97
2019-03-27T03:38:43.325Z,100001.57
2019-03-27T03:41:12.786Z,100001.45
2019-03-27T03:43:42.388Z,99999.83
2019-03-27T03:46:11.979Z,100003.58
2019-03-27T03:48:41.462Z,99997.41
2019-03-27T03:51:11.263Z,100002.83
2019-03-27T03:53:51.076Z,100000.24
2019-03-27T03:56:25.093Z,100000.59
2019-03-27T03:58:57.105Z,100001.98
2019-03-27T04:01:32.498Z,100003.86
2019-03-27T04:04:05.311Z,99995.47
2019-03-27T04:06:35.747Z,99997.45
2019-03-27T04:09:07.513Z,99999.35
2019-03-27T04:11:37.036Z,100005.89
2019-03-27T04:14:10.858Z,100007.59
2019-03-27T04:16:40.257Z,100009.66
2019-03-27T04:19:10.499Z,100009.81
2019-03-27T04:21:40.004Z,100008.61
2019-03-27T04:24:11.338Z,100012.70
2019-03-27T04:26:41.051Z,100020.17
2019-03-27T04:29:12.141Z,100022.74
2019-03-27T04:31:42.171Z,100026.83
2019-03-27T04:34:13.769Z,100024.27
2019-03-27T04:36:43.237Z,100024.61
2019-03-27T04:39:12.746Z,100031.88
2019-03-27T04:41:42.342Z,100030.67
2019-03-27T04:44:11.784Z,100040.87
2019-03-27T04:46:44.217Z,100040.13
2019-03-27T04:49:13.767Z,100037.69
2019-03-27T04:51:43.241Z,100040.91
2019-03-27T04:54:12.713Z,100043.64
2019-03-27T04:56:44.091Z,100048.17
2019-03-27T04:59:16.381Z,100049.33
2019-03-27T05:01:49.013Z,100050.63
2019-03-27T05:04:22.115Z,100062.96
2019-03-27T05:06:53.225Z,100056.47
2019-03-27T05:09:22.774Z,100056.51
2019-03-27T05:11:52.783Z,100054.55
2019-03-27T05:14:24.920Z,100057.94
2019-03-27T05:16:56.021Z,100060.36
2019-03-27T05:19:26.845Z,100066.94
2019-03-27T05:21:57.903Z,100066.44
2019-03-27T05:24:28.617Z,100059.91
2019-03-27T05:26:59.783Z,100069.20
2019-03-27T05:29:29.385Z,100074.22
2019-03-27T05:31:58.890Z,100076.31
2019-03-27T05:34:28.400Z,100076.31
2019-03-27T05:36:57.906Z,100076.08
2019-03-27T05:39:27.481Z,100080.10
2019-03-27T05:41:58.491Z,100075.46
2019-03-27T05:44:27.981Z,100077.54
2019-03-27T05:46:57.482Z,100085.30
2019-03-27T05:49:26.987Z,100086.80
2019-03-27T05:51:56.471Z,100088.69
2019-03-27T05:54:25.977Z,100091.54
2019-03-27T05:56:55.442Z,100090.06
2019-03-27T05:59:28.000Z,100092.20
2019-03-27T06:01:57.507Z,100096.16
2019-03-27T06:04:29.397Z,100096.63
2019-03-27T06:06:58.880Z,100098.84
2019-03-27T06:09:28.416Z,100105.70
2019-03-27T06:11:57.931Z,100107.49
2019-03-27T06:14:27.428Z,100107.70
2019-03-27T06:16:57.049Z,100099.24
2019-03-27T06:19:26.561Z,100097.89
2019-03-27T06:21:56.039Z,100100.91
2019-03-27T06:24:28.065Z,100103.65
2019-03-27T06:26:57.554Z,100104.78
2019-03-27T06:29:27.013Z,100107.30
2019-03-27T06:31:56.758Z,100105.84
2019-03-27T06:34:26.231Z,100110.86
2019-03-27T06:36:55.767Z,100109.03
2019-03-27T06:39:25.185Z,100106.50
2019-03-27T06:41:58.671Z,100111.34
2019-03-27T06:44:28.158Z,100116.94
2019-03-27T06:46:58.918Z,100111.47
2019-03-27T06:49:30.775Z,100112.35
2019-03-27T06:52:00.280Z,100109.92
2019-03-27T06:54:29.797Z,100103.91
2019-03-27T06:57:01.149Z,100108.62
2019-03-27T06:59:30.593Z,100110.64
2019-03-27T07:02:00.140Z,100113.00
2019-03-27T07:04:29.614Z,100111.26
2019-03-27T07:06:59.129Z,100108.08
2019-03-27T07:09:28.657Z,100112.19
2019-03-27T07:11:58.223Z,100115.95
2019-03-27T07:14:27.587Z,100119.85
2019-03-27T07:16:57.083Z,100120.03
2019-03-27T07:19:26.560Z,100119.83
2019-03-27T07:21:56.080Z,100125.54
2019-03-27T07:24:25.584Z,100119.06
2019-03-27T07:26:55.068Z,100114.52
2019-03-27T07:29:26.067Z,100085.38
2019-03-27T07:31:55.580Z,100073.62
2019-03-27T07:34:25.064Z,100061.14
2019-03-27T07:36:56.190Z,100059.34
2019-03-27T07:39:25.977Z,100057.76
2019-03-27T07:41:55.475Z,100056.29
2019-03-27T07:44:25.467Z,100048.10
2019-03-27T07:46:54.989Z,100041.76
2019-03-27T07:49:24.500Z,100047.08
2019-03-27T07:51:54.009Z,100055.17
2019-03-27T07:54:23.532Z,100041.59
2019-03-27T07:56:53.035Z,100063.55
2019-03-27T07:59:22.556Z,100072.26
2019-03-27T08:01:52.075Z,100053.81
2019-03-27T08:04:21.576Z,100043.50
2019-03-27T08:06:51.072Z,100034.30
2019-03-27T08:09:23.082Z,100035.97
2019-03-27T08:11:51.888Z,100028.48
2019-03-27T08:14:21.391Z,100029.53
2019-03-27T08:16:50.899Z,100040.05
2019-03-27T08:19:21.898Z,100039.44
2019-03-27T08:21:51.486Z,100037.27
2019-03-27T08:24:21.141Z,100048.02
2019-03-27T08:26:50.616Z,100038.16
2019-03-27T08:29:20.162Z,100054.06
2019-03-27T08:31:50.082Z,100048.75
2019-03-27T08:34:38.939Z,100072.08
2019-03-27T08:37:09.961Z,100059.62
2019-03-27T08:39:39.437Z,100084.34
2019-03-27T08:42:09.111Z,100064.39
2019-03-27T08:44:38.616Z,100056.59
2019-03-27T08:47:08.141Z,100089.84
2019-03-27T08:49:57.103Z,100090.12
2019-03-27T08:52:45.950Z,100066.95
2019-03-27T08:55:15.894Z,100056.20
2019-03-27T08:57:45.391Z,100064.88
2019-03-27T09:00:17.101Z,100060.09
2019-03-27T09:02:46.663Z,100039.61
2019-03-27T09:05:16.475Z,100056.73
2019-03-27T09:07:45.950Z,100060.22
2019-03-27T09:10:15.859Z,100065.54
2019-03-27T09:12:45.362Z,100055.45
2019-03-27T09:15:16.812Z,100048.61
2019-03-27T09:17:46.415Z,100077.56
2019-03-27T09:20:16.298Z,100086.95
2019-03-27T09:22:45.784Z,100076.12
2019-03-27T09:25:15.630Z,100059.56
2019-03-27T09:27:45.117Z,100064.53
2019-03-27T09:30:15.589Z,100050.16
2019-03-27T09:32:45.096Z,100068.31
2019-03-27T09:35:33.904Z,100077.00
2019-03-27T09:38:03.421Z,100060.47
2019-03-27T09:40:33.002Z,100060.36
2019-03-27T09:43:02.580Z,100075.11
2019-03-27T09:45:32.067Z,100090.76
2019-03-27T09:48:01.577Z,100072.36
2019-03-27T09:50:31.081Z,100063.41
2019-03-27T09:53:00.664Z,100066.05
2019-03-27T09:55:30.234Z,100065.33
2019-03-27T09:57:59.870Z,100067.70
2019-03-27T10:00:33.976Z,100044.82
2019-03-27T10:03:03.624Z,100061.91
2019-03-27T10:05:33.102Z,100044.46
2019-03-27T10:08:02.713Z,100041.51
2019-03-27T10:10:32.292Z,100061.03
2019-03-27T10:13:01.855Z,100054.17
2019-03-27T10:15:31.521Z,100051.77
2019-03-27T10:18:01.144Z,100056.89
2019-03-27T10:20:30.712Z,100050.91
2019-03-27T10:23:00.361Z,100057.56
2019-03-27T10:25:29.944Z,100069.53
2019-03-27T10:27:59.571Z,100075.44
2019-03-27T10:30:29.176Z,100080.10
2019-03-27T10:32:58.751Z,100089.89
2019-03-27T10:35:28.355Z,100078.91
2019-03-27T10:37:57.962Z,100083.78
2019-03-27T10:40:27.511Z,100091.63
2019-03-27T10:42:57.081Z,100088.00
2019-03-27T10:45:26.783Z,100082.84
2019-03-27T10:47:56.360Z,100087.22
2019-03-27T10:50:25.998Z,100084.02
2019-03-27T10:52:55.623Z,100078.87
2019-03-27T10:55:25.213Z,100074.59
2019-03-27T10:57:54.795Z,100079.55
2019-03-27T11:00:24.444Z,100081.09
2019-03-27T11:02:54.054Z,100078.58
2019-03-27T11:05:23.686Z,100058.39
2019-03-27T11:07:53.291Z,100046.91
2019-03-27T11:10:23.440Z,100040.80
2019-03-27T11:12:55.017Z,100039.82
2019-03-27T11:15:24.529Z,100047.13
2019-03-27T11:17:54.108Z,100042.20
2019-03-27T11:20:30.767Z,100046.48
2019-03-27T11:22:55.508Z,100063.22
2019-03-27T11:25:25.093Z,100063.41
2019-03-27T11:27:54.520Z,100062.28
2019-03-27T11:30:28.667Z,100061.48
2019-03-27T11:32:58.265Z,100066.94
2019-03-27T11:35:29.448Z,100083.91
2019-03-27T11:38:04.963Z,100078.56
2019-03-27T11:40:34.538Z,100077.06
2019-03-27T11:43:04.473Z,100081.70
2019-03-27T11:45:35.589Z,100069.20
2019-03-27T11:48:08.234Z,100062.91
2019-03-27T11:50:44.591Z,100069.22
2019-03-27T11:53:10.087Z,100059.28
2019-03-27T11:55:39.685Z,100058.92
2019-03-27T11:58:09.258Z,100050.91
2019-03-27T12:00:53.467Z,100073.65
2019-03-27T12:03:10.252Z,100071.29
2019-03-27T12:05:39.827Z,100077.57
2019-03-27T12:08:10.968Z,100076.62
2019-03-27T12:10:40.572Z,100083.39
2019-03-27T12:13:10.186Z,100074.80
2019-03-27T12:15:42.252Z,100082.89
2019-03-27T12:18:14.331Z,100084.12
2019-03-27T12:20:57.825Z,100074.17
2019-03-27T12:23:15.653Z,100070.50
2019-03-27T12:25:45.208Z,100067.86
2019-03-27T12:28:15.691Z,100067.77
2019-03-27T12:30:45.292Z,100068.63
2019-03-27T12:33:14.937Z,100071.50
2019-03-27T12:35:44.546Z,100057.70
2019-03-27T12:38:14.936Z,100064.16
2019-03-27T12:40:44.572Z,100062.69
2019-03-27T12:43:33.529Z,100065.59
2019-03-27T12:46:03.211Z,100056.32
2019-03-27T12:48:32.923Z,100058.14
2019-03-27T12:51:12.799Z,100061.89
2019-03-27T12:53:34.109Z,100062.02
2019-03-27T12:56:03.742Z,100059.19
2019-03-27T12:58:33.393Z,100055.34
2019-03-27T13:01:03.356Z,100062.14
2019-03-27T13:03:32.924Z,100065.48
2019-03-27T13:06:02.633Z,100062.86
2019-03-27T13:08:32.217Z,100061.73
2019-03-27T13:11:01.949Z,100061.94
2019-03-27T13:13:31.442Z,100056.08
2019-03-27T13:16:00.925Z,100062.20
2019-03-27T13:18:31.469Z,100053.06
2019-03-27T13:21:01.001Z,100056.05
2019-03-27T13:23:30.481Z,100061.09
2019-03-27T13:25:59.964Z,100062.47
2019-03-27T13:28:29.619Z,100064.44
2019-03-27T13:30:59.082Z,100062.23
2019-03-27T13:33:28.607Z,100052.58
2019-03-27T13:35:58.129Z,100060.23
2019-03-27T13:38:27.598Z,100055.62
2019-03-27T13:40:57.104Z,100062.37
2019-03-27T13:43:26.606Z,100051.81
2019-03-27T13:45:56.132Z,100050.98
2019-03-27T13:48:25.615Z,100046.14
2019-03-27T13:50:55.125Z,100043.20
2019-03-27T13:53:24.614Z,100040.61
2019-03-27T13:55:54.106Z,100035.40
2019-03-27T13:58:23.556Z,100036.72
2019-03-27T14:00:53.261Z,100030.19
2019-03-27T14:03:22.842Z,100045.55
2019-03-27T14:05:52.548Z,100047.06
2019-03-27T14:08:22.037Z,100035.95
2019-03-27T14:10:51.559Z,100037.02
2019-03-27T14:13:21.098Z,100035.90
2019-03-27T14:15:50.678Z,100033.67
2019-03-27T14:18:20.177Z,100032.98
2019-03-27T14:20:50.517Z,100032.72
2019-03-27T14:23:20.021Z,100035.08
2019-03-27T14:25:49.609Z,100036.53
2019-03-27T14:28:19.121Z,100037.23
2019-03-27T14:33:29.694Z,100034.16
2019-03-27T14:35:59.150Z,100038.75
2019-03-27T14:38:28.728Z,100038.81
2019-03-27T14:40:58.235Z,100033.92
2019-03-27T14:43:27.733Z,100034.42
2019-03-27T14:45:57.285Z,100036.69
2019-03-27T14:48:26.976Z,100036.77
2019-03-27T14:50:56.475Z,100042.69
2019-03-27T14:53:25.975Z,100039.36
2019-03-27T14:55:55.514Z,100036.61
2019-03-27T14:58:25.006Z,100041.61
2019-03-27T15:00:56.084Z,100037.67
2019-03-27T15:03:25.618Z,100038.10
2019-03-27T15:05:56.578Z,100042.53
2019-03-27T15:08:26.105Z,100047.63
2019-03-27T15:11:15.180Z,100044.72
2019-03-27T15:13:44.675Z,100049.38
2019-03-27T15:16:14.169Z,100037.14
2019-03-27T15:18:43.758Z,100040.55
2019-03-27T15:21:13.367Z,100036.95
2019-03-27T15:23:42.854Z,100032.09
2019-03-27T15:26:12.422Z,100034.16
2019-03-27T15:28:42.069Z,100043.95
2019-03-27T15:31:20.377Z,100036.75
2019-03-27T15:33:42.788Z,100033.23
2019-03-27T15:36:12.293Z,100036.67
2019-03-27T15:38:41.790Z,100032.42
2019-03-27T15:41:11.351Z,100036.52
2019-03-27T15:43:40.863Z,100036.16
2019-03-27T15:46:10.332Z,100038.52
2019-03-27T15:48:39.933Z,100031.45
2019-03-27T15:51:09.396Z,100027.50
2019-03-27T15:53:38.880Z,100023.50
2019-03-27T15:56:08.596Z,100026.14
2019-03-27T15:58:57.382Z,99912.58
2019-03-27T16:01:26.922Z,100023.02
2019-03-27T16:03:56.434Z,100022.16
2019-03-27T16:06:25.939Z,100025.97
2019-03-27T16:08:55.439Z,100034.52
2019-03-27T16:11:24.923Z,100032.10
2019-03-27T16:13:54.386Z,100035.37
2019-03-27T16:16:23.998Z,100037.92
2019-03-27T16:18:53.485Z,100035.02
2019-03-27T16:21:23.232Z,100034.84
2019-03-27T16:24:05.794Z,100036.11
2019-03-27T16:26:29.896Z,100031.92
2019-03-27T16:28:59.458Z,100035.64
2019-03-27T16:31:29.002Z,100039.53
2019-03-27T16:33:59.004Z,100037.83
2019-03-27T16:36:30.369Z,100039.94
2019-03-27T16:38:59.787Z,100049.67
2019-03-27T16:41:35.373Z,100047.37
2019-03-27T16:44:05.192Z,100057.08
2019-03-27T16:46:34.651Z,100053.82
2019-03-27T16:49:04.156Z,100061.74
2019-03-27T16:51:33.664Z,100063.41
2019-03-27T16:54:03.169Z,100055.55
2019-03-27T16:56:52.226Z,100058.41
2019-03-27T16:59:21.735Z,100054.27
2019-03-27T17:01:51.219Z,100059.45
2019-03-27T17:04:20.744Z,100062.98
2019-03-27T17:07:09.547Z,99937.30
2019-03-27T17:09:39.416Z,100064.85
2019-03-27T17:12:08.899Z,100074.09
2019-03-27T17:14:38.384Z,100074.20
2019-03-27T17:17:08.139Z,100082.34
2019-03-27T17:19:37.694Z,100083.78
2019-03-27T17:22:18.857Z,100086.70
2019-03-27T17:24:38.455Z,100092.97
2019-03-27T17:27:07.993Z,100089.45
2019-03-27T17:29:37.503Z,100086.40
2019-03-27T17:32:07.101Z,100090.42
2019-03-27T17:34:36.618Z,100092.80
2019-03-27T17:37:06.109Z,100094.83
2019-03-27T17:39:35.631Z,100094.02
2019-03-27T17:42:05.267Z,100097.42
2019-03-27T17:44:34.767Z,100098.50
2019-03-27T17:47:04.464Z,100095.27
2019-03-27T17:49:33.943Z,100100.78
2019-03-27T17:52:03.419Z,100101.80
2019-03-27T17:54:32.952Z,100104.98
2019-03-27T17:57:04.644Z,100111.88
2019-03-27T17:59:34.131Z,100108.95
2019-03-27T18:02:03.629Z,100113.08
2019-03-27T18:04:33.091Z,100116.46
2019-03-27T18:07:02.562Z,100118.87
2019-03-27T18:09:32.111Z,100118.75
2019-03-27T18:12:04.606Z,100116.12
2019-03-27T18:14:34.094Z,100117.94
2019-03-27T18:17:06.670Z,100121.42
2019-03-27T18:19:36.172Z,100127.23
2019-03-27T18:22:07.843Z,100129.38
2019-03-27T18:24:37.416Z,100131.05
2019-03-27T18:27:06.970Z,100131.46
2019-03-27T18:29:36.433Z,100134.41
2019-03-27T18:32:07.463Z,100136.63
2019-03-27T18:34:37.120Z,100138.41
2019-03-27T18:37:06.633Z,100146.60
2019-03-27T18:39:36.104Z,100149.22
2019-03-27T18:42:07.175Z,100158.78
2019-03-27T18:44:36.669Z,100166.67
2019-03-27T18:47:06.143Z,100170.83
2019-03-27T18:49:35.607Z,100174.01
2019-03-27T18:52:05.060Z,100175.06
2019-03-27T18:54:34.587Z,100176.47
2019-03-27T18:57:23.411Z,100047.39
2019-03-27T18:59:52.893Z,100183.34
2019-03-27T19:02:22.420Z,100184.05
2019-03-27T19:04:51.917Z,100190.80
2019-03-27T19:07:21.429Z,100197.14
2019-03-27T19:09:51.008Z,100195.66
2019-03-27T19:12:20.512Z,100194.70
2019-03-27T19:14:50.034Z,100197.30
2019-03-27T19:17:19.526Z,100198.62
2019-03-27T19:19:48.987Z,100197.64
2019-03-27T19:22:18.495Z,100197.84
2019-03-27T19:24:47.966Z,100204.62
2019-03-27T19:27:17.479Z,100204.88
2019-03-27T19:29:47.216Z,100199.31
2019-03-27T19:32:22.513Z,100107.48
2019-03-27T19:34:53.558Z,100205.01
2019-03-27T19:37:23.026Z,100204.98
2019-03-27T19:39:52.520Z,100208.06
2019-03-27T19:42:22.193Z,100205.14
2019-03-27T19:44:51.896Z,100205.37
2019-03-27T19:47:21.389Z,100208.30
2019-03-27T19:49:50.978Z,100207.73
2019-03-27T19:52:20.469Z,100206.44
2019-03-27T19:54:49.926Z,100206.34
2019-03-27T19:57:19.681Z,100207.47
2019-03-27T19:59:49.128Z,100212.70
2019-03-27T20:02:18.642Z,100206.90
2019-03-27T20:04:48.177Z,100213.42
2019-03-27T20:07:17.641Z,100210.79
2019-03-27T20:09:48.635Z,100215.25
2019-03-27T20:12:18.141Z,100213.37
2019-03-27T20:14:47.628Z,100217.36
2019-03-27T20:17:17.110Z,100222.64
2019-03-27T20:19:46.653Z,100225.53
2019-03-27T20:22:16.213Z,100230.71
2019-03-27T20:24:45.641Z,100230.53
2019-03-27T20:27:27.265Z,100236.70
2019-03-27T20:29:56.758Z,100234.82
2019-03-27T20:32:26.212Z,100235.00
2019-03-27T20:34:55.720Z,100231.83
2019-03-27T20:37:25.176Z,100232.36
2019-03-27T20:39:54.670Z,100236.17
2019-03-27T20:42:24.156Z,100233.48
2019-03-27T20:44:53.648Z,100237.01
2019-03-27T20:47:23.207Z,100242.07
2019-03-27T20:49:52.712Z,100243.02
2019-03-27T20:52:22.156Z,100240.67
2019-03-27T20:54:55.349Z,100243.92
2019-03-27T20:57:22.973Z,100238.39
2019-03-27T20:59:52.456Z,100237.63
2019-03-27T21:02:22.143Z,100244.42
2019-03-27T21:04:51.646Z,100248.15
2019-03-27T21:07:24.404Z,100249.84
2019-03-27T21:09:53.426Z,100251.36
2019-03-27T21:12:23.283Z,100258.38
2019-03-27T21:14:52.724Z,100260.92
2019-03-27T21:17:22.172Z,100262.55
2019-03-27T21:19:51.670Z,100268.30
2019-03-27T21:22:21.175Z,100267.33
2019-03-27T21:24:50.662Z,100267.87
2019-03-27T21:27:20.321Z,100266.52
2019-03-27T21:29:49.782Z,100268.02
2019-03-27T21:32:38.634Z,100265.08
2019-03-27T21:35:08.899Z,100259.52
2019-03-27T21:37:38.619Z,100259.62
2019-03-27T21:40:09.059Z,100261.66
2019-03-27T21:42:38.597Z,100261.27
2019-03-27T21:45:10.518Z,100263.98
2019-03-27T21:47:40.045Z,100260.01
2019-03-27T21:50:10.905Z,100267.54
2019-03-27T21:52:40.404Z,100266.74
2019-03-27T21:55:22.127Z,100268.55
2019-03-27T21:57:42.013Z,100272.34
2019-03-27T22:00:14.285Z,100271.76
2019-03-27T22:02:44.065Z,100272.11
2019-03-27T22:05:13.645Z,100267.28
2019-03-27T22:07:43.354Z,100269.89
2019-03-27T22:10:13.042Z,100273.54
2019-03-27T22:12:42.505Z,100281.53
2019-03-27T22:15:12.532Z,100277.50
2019-03-27T22:17:42.007Z,100278.59
2019-03-27T22:20:11.849Z,100276.62
2019-03-27T22:22:41.330Z,100276.64
2019-03-27T22:25:11.116Z,100279.14
2019-03-27T22:27:40.798Z,100282.42
2019-03-27T22:30:11.080Z,100286.94
2019-03-27T22:32:40.595Z,100288.50
2019-03-27T22:35:10.410Z,100294.17
2019-03-27T22:37:59.268Z,100293.23
2019-03-27T22:40:28.725Z,100291.83
2019-03-27T22:42:58.226Z,100292.70
2019-03-27T22:45:27.763Z,100301.49
2019-03-27T22:47:57.282Z,100300.22
2019-03-27T22:50:26.770Z,100306.70
2019-03-27T22:52:56.360Z,100300.09
2019-03-27T22:55:25.883Z,100292.73
2019-03-27T22:58:14.696Z,100294.91
2019-03-27T23:00:45.852Z,100291.13
2019-03-27T23:03:34.660Z,100297.66
2019-03-27T23:06:04.329Z,100300.80
2019-03-27T23:08:35.299Z,100297.09
2019-03-27T23:11:05.090Z,100305.63
2019-03-27T23:13:34.621Z,100302.91
2019-03-27T23:16:04.125Z,100300.32
2019-03-27T23:18:52.950Z,100296.71
2019-03-27T23:21:22.428Z,100298.44
2019-03-27T23:23:51.888Z,100303.84
2019-03-27T23:26:40.712Z,100308.48
2019-03-27T23:29:10.252Z,100303.94
2019-03-27T23:31:40.014Z,100304.36
2019-03-27T23:34:11.004Z,100304.47
2019-03-27T23:36:41.492Z,100304.16
2019-03-27T23:39:10.971Z,100299.34
2019-03-27T23:41:40.517Z,100300.66
2019-03-27T23:44:10.578Z,100295.91
2019-03-27T23:46:40.060Z,100300.70
2019-03-27T23:49:09.566Z,100298.39
2019-03-27T23:51:39.076Z,100302.54
2019-03-27T23:54:08.549Z,100297.11
2019-03-27T23:56:39.596Z,100302.81
2019-03-27T23:59:10.590Z,100302.41
